Time;durP1;ratioP1;P1;durP2;ratioP2;P2;SDS_P1;SDS_P2;PMS_P1;PMS_P2;Temp;Humidity;BMP_temperature;BMP_pressure;BME280_temperature;BME280_humidity;BME280_pressure;Samples;Min_cycle;Max_cycle;Signal;HPM_P1;HPM_P2
2022/09/24 00:00:10;;;;;;;10.85;6.50;;;;;;;14.65;69.65;99242.63;340417;28;1645;-69
2022/09/24 00:00:22;;;;;;;10.02;6.47;;;;;;;14.66;69.62;99244.34;339599;29;1334;-70
2022/09/24 00:00:34;;;;;;;9.07;6.22;;;;;;;14.65;69.74;99245.25;338836;29;2002;-70
2022/09/24 00:00:50;;;;;;;9.30;6.28;;;;;;;14.63;69.95;99245.34;339784;29;1988;-70
2022/09/24 00:01:14;;;;;;;8.00;6.40;;;;;;;14.62;69.76;99243.66;337083;29;1444;-70
2022/09/24 00:01:33;;;;;;;7.80;5.88;;;;;;;14.62;69.71;99243.66;336734;29;1092;-70
2022/09/24 00:01:45;;;;;;;7.53;5.72;;;;;;;14.61;69.64;99247.22;336816;29;1874;-69
2022/09/24 00:01:57;;;;;;;7.72;5.85;;;;;;;14.58;69.33;99247.38;336885;29;1035;-70
2022/09/24 00:02:10;;;;;;;7.82;6.10;;;;;;;14.57;69.32;99243.09;336947;29;1105;-69
2022/09/24 00:02:22;;;;;;;9.05;6.20;;;;;;;14.55;69.55;99237.06;337743;29;1174;-69
2022/09/24 00:02:34;;;;;;;9.70;6.00;;;;;;;14.52;69.68;99247.69;338165;29;1604;-69
2022/09/24 00:02:46;;;;;;;8.57;5.80;;;;;;;14.52;69.45;99247.69;339455;29;1478;-69
2022/09/24 00:02:58;;;;;;;7.28;5.90;;;;;;;14.53;69.66;99246.78;338248;29;1846;-69
2022/09/24 00:03:10;;;;;;;7.30;5.88;;;;;;;14.55;69.53;99239.69;340615;29;1661;-70
2022/09/24 00:03:24;;;;;;;6.88;5.80;;;;;;;14.57;69.77;99245.69;341092;28;1167;-70
2022/09/24 00:03:37;;;;;;;7.15;5.93;;;;;;;14.58;69.55;99242.97;342065;28;1588;-69
2022/09/24 00:03:52;;;;;;;6.97;5.90;;;;;;;14.59;69.42;99246.47;343119;28;1876;-70
2022/09/24 00:04:06;;;;;;;7.50;6.28;;;;;;;14.60;69.52;99245.50;343552;28;1179;-69
2022/09/24 00:04:18;;;;;;;8.23;6.47;;;;;;;14.61;69.46;99236.75;343184;28;1704;-70
2022/09/24 00:04:31;;;;;;;7.82;6.28;;;;;;;14.57;69.48;99245.69;343476;28;1098;-70
2022/09/24 00:04:43;;;;;;;7.20;6.05;;;;;;;14.55;69.43;99242.28;343309;28;1020;-68
2022/09/24 00:04:55;;;;;;;7.13;6.03;;;;;;;14.55;69.50;99237.06;343326;28;1158;-70
2022/09/24 00:05:08;;;;;;;9.63;6.00;;;;;;;14.53;69.69;99239.75;343706;28;1287;-70
2022/09/24 00:05:20;;;;;;;10.10;5.95;;;;;;;14.53;69.61;99238.94;343636;28;1376;-70
2022/09/24 00:05:41;;;;;;;9.77;5.70;;;;;;;14.55;69.55;99243.13;341866;28;1974;-69
2022/09/24 00:05:53;;;;;;;9.82;5.88;;;;;;;14.56;69.44;99244.00;340777;28;1438;-68
2022/09/24 00:06:06;;;;;;;9.52;6.10;;;;;;;14.55;69.37;99243.13;342150;28;1265;-70
2022/09/24 00:06:18;;;;;;;9.63;6.20;;;;;;;14.56;69.52;99238.75;341837;28;1650;-69
2022/09/24 00:06:35;;;;;;;9.52;6.10;;;;;;;14.57;69.70;99240.47;342023;28;1718;-69
2022/09/24 00:06:47;;;;;;;9.85;6.00;;;;;;;14.57;69.60;99243.09;340631;28;1645;-70
2022/09/24 00:06:59;;;;;;;8.23;6.00;;;;;;;14.57;69.59;99238.69;340793;29;1530;-70
2022/09/24 00:07:11;;;;;;;7.68;6.25;;;;;;;14.57;69.30;99246.53;341071;29;1281;-70
2022/09/24 00:07:23;;;;;;;7.45;6.32;;;;;;;14.57;69.49;99235.25;340939;28;1154;-70
2022/09/24 00:07:35;;;;;;;8.32;6.30;;;;;;;14.58;69.34;99239.53;341001;28;1851;-69
2022/09/24 00:07:47;;;;;;;8.57;6.22;;;;;;;14.59;68.88;99238.63;342043;28;1805;-69
2022/09/24 00:07:59;;;;;;;8.55;6.20;;;;;;;14.58;69.69;99236.91;342308;28;1099;-70
2022/09/24 00:08:12;;;;;;;9.15;6.10;;;;;;;14.57;69.65;99237.84;342293;28;1111;-69
2022/09/24 00:08:24;;;;;;;9.20;6.18;;;;;;;14.58;69.61;99236.91;343245;28;1204;-70
2022/09/24 00:08:36;;;;;;;7.55;6.05;;;;;;;14.60;69.79;99236.84;342020;28;1693;-70
2022/09/24 00:08:51;;;;;;;7.13;5.90;;;;;;;14.58;69.72;99242.13;342760;28;1800;-69
2022/09/24 00:09:04;;;;;;;8.00;5.90;;;;;;;14.56;69.68;99237.00;342973;28;1397;-70
2022/09/24 00:09:20;;;;;;;7.55;5.90;;;;;;;14.57;69.59;99237.84;343484;28;1417;-68
2022/09/24 00:09:32;;;;;;;7.57;6.28;;;;;;;14.55;69.68;99242.28;342177;28;1619;-70
2022/09/24 00:09:44;;;;;;;8.02;6.57;;;;;;;14.55;69.80;99244.91;343493;28;1576;-70
2022/09/24 00:09:56;;;;;;;8.73;6.55;;;;;;;14.52;69.66;99232.00;343770;28;1126;-70
2022/09/24 00:10:08;;;;;;;8.65;6.43;;;;;;;14.50;69.84;99239.06;343550;28;1015;-69
2022/09/24 00:10:22;;;;;;;8.43;6.40;;;;;;;14.52;69.85;99237.22;341920;28;1428;-69
2022/09/24 00:10:38;;;;;;;8.48;6.65;;;;;;;14.51;70.03;99241.63;341573;28;1721;-70
2022/09/24 00:10:50;;;;;;;8.48;6.32;;;;;;;14.51;69.93;99239.00;341798;28;1868;-69
2022/09/24 00:11:05;;;;;;;9.38;6.30;;;;;;;14.52;70.23;99237.22;340752;28;1638;-70
2022/09/24 00:11:20;;;;;;;10.18;6.28;;;;;;;14.53;70.03;99234.53;341467;28;1699;-69
2022/09/24 00:11:33;;;;;;;8.13;6.20;;;;;;;14.55;69.97;99239.69;341301;28;1592;-70
2022/09/24 00:11:45;;;;;;;8.50;6.13;;;;;;;14.56;69.85;99236.16;342174;28;1060;-70
2022/09/24 00:11:57;;;;;;;9.32;6.10;;;;;;;14.57;69.79;99237.84;340014;28;2144;-70
2022/09/24 00:12:11;;;;;;;9.18;6.13;;;;;;;14.57;69.52;99240.47;341058;29;1069;-70
2022/09/24 00:12:24;;;;;;;10.75;6.30;;;;;;;14.55;69.49;99235.28;341601;28;1221;-70
2022/09/24 00:12:36;;;;;;;10.30;6.30;;;;;;;14.55;69.82;99239.69;341322;28;1866;-70
2022/09/24 00:12:48;;;;;;;7.27;6.17;;;;;;;14.55;69.89;99237.06;341981;28;1812;-70
2022/09/24 00:13:00;;;;;;;7.43;6.30;;;;;;;14.53;70.03;99233.69;341623;28;1475;-69
2022/09/24 00:13:16;;;;;;;7.72;6.20;;;;;;;14.54;69.92;99240.59;341787;28;1805;-70
2022/09/24 00:13:29;;;;;;;7.60;6.18;;;;;;;14.55;69.87;99231.84;341043;29;1256;-70
2022/09/24 00:13:41;;;;;;;7.65;6.28;;;;;;;14.55;69.81;99237.06;342864;28;1433;-69
2022/09/24 00:13:55;;;;;;;8.35;6.15;;;;;;;14.54;69.89;99237.97;343782;28;1876;-69
2022/09/24 00:14:07;;;;;;;7.93;5.82;;;;;;;14.53;70.07;99229.28;343451;28;1190;-70
2022/09/24 00:14:19;;;;;;;8.63;5.78;;;;;;;14.54;70.06;99238.81;343328;28;1180;-70
2022/09/24 00:14:31;;;;;;;9.00;6.10;;;;;;;14.52;70.11;99235.44;343154;28;1730;-69
2022/09/24 00:14:43;;;;;;;9.15;6.25;;;;;;;14.51;70.04;99238.16;342816;28;1818;-70
2022/09/24 00:14:55;;;;;;;9.27;6.22;;;;;;;14.52;70.00;99238.06;343634;28;1007;-70
2022/09/24 00:15:07;;;;;;;8.30;6.40;;;;;;;14.50;69.99;99239.06;343697;28;1042;-69
2022/09/24 00:15:19;;;;;;;8.57;6.53;;;;;;;14.50;70.10;99236.47;342126;28;1834;-69
2022/09/24 00:15:36;;;;;;;8.43;6.20;;;;;;;14.49;69.85;99233.00;341465;28;1681;-70
2022/09/24 00:15:49;;;;;;;7.57;5.82;;;;;;;14.50;69.94;99233.84;341950;28;1983;-70
2022/09/24 00:16:06;;;;;;;6.25;5.60;;;;;;;14.50;69.82;99233.84;342092;28;1278;-69
2022/09/24 00:16:20;;;;;;;6.43;5.60;;;;;;;14.49;69.95;99233.00;342153;28;1353;-70
2022/09/24 00:16:33;;;;;;;6.85;5.60;;;;;;;14.51;69.91;99230.31;340256;28;1807;-69
2022/09/24 00:16:45;;;;;;;6.85;5.55;;;;;;;14.51;69.83;99231.16;340691;29;1815;-69
2022/09/24 00:16:57;;;;;;;7.72;5.78;;;;;;;14.51;69.77;99225.94;340836;29;1968;-69
2022/09/24 00:17:09;;;;;;;8.52;5.70;;;;;;;14.50;69.82;99228.63;340724;29;1101;-69
2022/09/24 00:17:21;;;;;;;8.32;5.65;;;;;;;14.50;69.80;99228.63;341386;28;1326;-69
2022/09/24 00:17:33;;;;;;;6.80;5.43;;;;;;;14.52;69.71;99232.00;341807;28;1730;-68
2022/09/24 00:17:46;;;;;;;7.38;5.43;;;;;;;14.51;69.61;99225.09;342383;28;1855;-69
2022/09/24 00:17:58;;;;;;;7.60;5.40;;;;;;;14.52;69.48;99232.00;342149;28;1040;-70
2022/09/24 00:18:11;;;;;;;8.45;5.57;;;;;;;14.53;69.64;99223.22;342288;28;1063;-69
2022/09/24 00:18:23;;;;;;;8.30;5.85;;;;;;;14.53;69.56;99223.22;341280;28;1374;-69
2022/09/24 00:18:36;;;;;;;7.50;5.82;;;;;;;14.52;69.92;99230.22;341590;28;1681;-69
2022/09/24 00:18:48;;;;;;;8.13;5.80;;;;;;;14.51;70.02;99227.69;342726;28;1627;-70
2022/09/24 00:19:02;;;;;;;7.57;5.72;;;;;;;14.51;69.65;99222.47;343594;28;1249;-70
2022/09/24 00:19:14;;;;;;;6.03;5.40;;;;;;;14.51;69.60;99228.53;343649;28;1027;-69
2022/09/24 00:19:26;;;;;;;5.95;5.35;;;;;;;14.50;69.66;99223.38;343445;28;1111;-70
2022/09/24 00:19:38;;;;;;;6.13;5.53;;;;;;;14.50;69.71;99223.38;342654;28;1465;-70
2022/09/24 00:19:50;;;;;;;7.32;5.50;;;;;;;14.48;69.79;99220.00;343224;28;1867;-71
2022/09/24 00:20:02;;;;;;;7.18;5.40;;;;;;;14.44;69.63;99223.72;343841;28;1184;-70
2022/09/24 00:20:14;;;;;;;7.43;5.40;;;;;;;14.43;69.99;99222.03;343978;28;764;-69
2022/09/24 00:20:29;;;;;;;7.50;5.60;;;;;;;14.43;69.88;99227.25;342398;28;1096;-70
2022/09/24 00:20:41;;;;;;;8.32;5.50;;;;;;;14.44;69.99;99223.72;342198;28;1515;-70
2022/09/24 00:20:53;;;;;;;7.75;5.40;;;;;;;14.46;70.09;99227.09;342736;28;1752;-69
2022/09/24 00:21:29;;;;;;;7.85;5.43;;;;;;;14.47;70.01;99220.97;343681;28;1057;-69
2022/09/24 00:21:41;;;;;;;7.57;5.60;;;;;;;14.46;69.74;99222.72;342479;28;2901;-70
2022/09/24 00:21:53;;;;;;;8.20;5.50;;;;;;;14.49;69.59;99226.94;343637;28;1692;-69
2022/09/24 00:22:05;;;;;;;7.80;5.63;;;;;;;14.50;69.54;99228.63;344022;28;737;-69
2022/09/24 00:22:17;;;;;;;6.70;5.53;;;;;;;14.51;69.49;99225.94;342384;28;1521;-69
2022/09/24 00:22:31;;;;;;;7.63;5.32;;;;;;;14.52;69.53;99222.38;343618;28;1063;-69
2022/09/24 00:22:43;;;;;;;7.72;5.38;;;;;;;14.49;69.42;99233.00;343246;28;1411;-69
2022/09/24 00:22:55;;;;;;;6.90;5.40;;;;;;;14.48;69.44;99226.06;343521;28;1063;-67
2022/09/24 00:23:08;;;;;;;6.80;5.53;;;;;;;14.45;69.36;99220.19;342768;28;1899;-69
2022/09/24 00:23:20;;;;;;;7.32;5.60;;;;;;;14.47;69.54;99226.19;342543;28;1531;-68
2022/09/24 00:23:32;;;;;;;8.00;5.65;;;;;;;14.48;69.58;99231.31;341686;28;1559;-68
2022/09/24 00:23:49;;;;;;;7.67;5.17;;;;;;;14.50;69.37;99224.22;343112;28;1361;-69
2022/09/24 00:24:08;;;;;;;7.15;4.90;;;;;;;14.53;69.17;99223.22;342314;28;1104;-69
2022/09/24 00:26:52;;;;;;;10.77;5.28;;;;;;;14.53;69.18;99223.22;342905;28;1749;-69
2022/09/24 00:27:05;;;;;;;10.50;5.22;;;;;;;14.55;69.31;99226.59;343319;28;1739;-69
2022/09/24 00:27:17;;;;;;;8.27;5.18;;;;;;;14.55;69.23;99226.59;343298;28;1250;-68
2022/09/24 00:27:29;;;;;;;6.95;5.30;;;;;;;14.55;69.18;99221.38;343340;28;1055;-68
2022/09/24 00:27:41;;;;;;;6.78;5.10;;;;;;;14.53;69.26;99223.22;341836;28;1617;-69
2022/09/24 00:27:52;;;;;;;7.35;5.30;;;;;;;14.52;69.14;99226.75;343058;28;1698;-69
2022/09/24 00:28:04;;;;;;;6.97;5.30;;;;;;;14.53;69.30;99225.84;342015;28;1052;-69
2022/09/24 00:28:16;;;;;;;7.35;5.25;;;;;;;14.51;69.23;99219.84;342812;28;1796;-68
2022/09/24 00:28:29;;;;;;;7.13;5.18;;;;;;;14.50;69.37;99224.22;342232;28;1180;-68
2022/09/24 00:28:41;;;;;;;7.38;5.40;;;;;;;14.49;69.39;99226.94;341949;28;1163;-69
2022/09/24 00:28:53;;;;;;;7.70;5.25;;;;;;;14.48;69.54;99220.00;340434;29;1691;-68
2022/09/24 00:29:07;;;;;;;9.43;5.80;;;;;;;14.49;69.54;99226.94;340726;29;1056;-68
2022/09/24 00:29:22;;;;;;;9.10;5.80;;;;;;;14.50;69.51;99228.63;339803;28;1933;-67
2022/09/24 00:29:35;;;;;;;7.72;5.30;;;;;;;14.52;69.57;99226.75;340456;28;2316;-69
2022/09/24 00:29:47;;;;;;;7.32;5.13;;;;;;;14.49;69.61;99226.94;340404;28;1612;-69
2022/09/24 00:29:59;;;;;;;7.38;5.10;;;;;;;14.49;69.62;99233.00;340098;29;1677;-69
2022/09/24 00:30:11;;;;;;;7.93;5.28;;;;;;;14.49;69.55;99226.94;340605;28;1513;-69
2022/09/24 00:30:23;;;;;;;8.47;5.53;;;;;;;14.50;69.49;99229.44;340919;28;1206;-69
2022/09/24 00:30:39;;;;;;;8.50;5.40;;;;;;;14.50;69.49;99224.22;342165;28;1161;-69
2022/09/24 00:30:51;;;;;;;6.55;5.07;;;;;;;14.50;69.40;99224.22;340960;28;1648;-69
2022/09/24 00:31:05;;;;;;;7.28;5.13;;;;;;;14.50;69.46;99228.63;342264;28;1063;-69
2022/09/24 00:31:18;;;;;;;7.80;5.38;;;;;;;14.50;69.42;99226.00;342081;28;1228;-69
2022/09/24 00:31:30;;;;;;;7.30;5.10;;;;;;;14.51;69.32;99225.09;341294;28;1658;-69
2022/09/24 00:31:43;;;;;;;7.25;4.97;;;;;;;14.50;69.29;99223.38;341395;28;1698;-68
2022/09/24 00:31:55;;;;;;;7.88;4.90;;;;;;;14.50;69.13;99229.44;341932;28;1858;-69
2022/09/24 00:32:07;;;;;;;5.88;4.80;;;;;;;14.50;69.10;99228.63;342191;28;1203;-69
2022/09/24 00:32:22;;;;;;;6.13;4.78;;;;;;;14.48;69.21;99230.47;340854;28;2304;-69
2022/09/24 00:32:34;;;;;;;5.57;4.70;;;;;;;14.48;69.30;99231.31;343261;28;1574;-69
2022/09/24 00:32:46;;;;;;;5.78;4.65;;;;;;;14.47;69.42;99229.63;343719;28;1057;-69
2022/09/24 00:32:58;;;;;;;5.55;4.78;;;;;;;14.47;69.39;99226.19;343702;28;1060;-69
2022/09/24 00:33:10;;;;;;;5.40;4.85;;;;;;;14.47;69.31;99228.81;342738;28;1747;-68
2022/09/24 00:33:23;;;;;;;5.63;4.80;;;;;;;14.47;69.20;99234.03;342868;28;1317;-69
2022/09/24 00:33:35;;;;;;;5.68;4.68;;;;;;;14.45;69.22;99214.97;343121;28;1344;-69
2022/09/24 00:33:50;;;;;;;5.55;4.70;;;;;;;14.45;69.29;99225.44;342525;28;1821;-69
2022/09/24 00:34:03;;;;;;;5.63;4.90;;;;;;;14.41;69.53;99223.88;342434;28;1292;-68
2022/09/24 00:34:16;;;;;;;6.05;4.95;;;;;;;14.40;69.72;99223.03;342121;28;1020;-68
2022/09/24 00:34:28;;;;;;;7.75;5.15;;;;;;;14.37;69.75;99224.06;342260;28;1040;-68
2022/09/24 00:34:40;;;;;;;7.68;5.30;;;;;;;14.35;69.73;99218.09;342344;28;1740;-68
2022/09/24 00:34:53;;;;;;;6.20;5.32;;;;;;;14.35;69.91;99225.94;343644;28;1871;-69
2022/09/24 00:35:05;;;;;;;6.60;5.10;;;;;;;14.35;70.12;99222.47;343228;28;1513;-68
2022/09/24 00:35:17;;;;;;;6.55;4.90;;;;;;;14.33;69.94;99217.31;342945;28;2512;-68
2022/09/24 00:35:33;;;;;;;6.78;4.78;;;;;;;14.33;70.02;99222.56;342232;28;1073;-67
2022/09/24 00:35:45;;;;;;;6.53;5.00;;;;;;;14.31;70.16;99218.34;342369;28;1041;-67
2022/09/24 00:36:01;;;;;;;7.10;5.15;;;;;;;14.29;70.35;99217.59;342085;28;1602;-68
2022/09/24 00:36:13;;;;;;;8.15;5.13;;;;;;;14.27;70.65;99222.88;342182;28;1122;-69
2022/09/24 00:36:26;;;;;;;7.43;5.13;;;;;;;14.25;70.59;99214.28;342504;28;2048;-69
2022/09/24 00:36:38;;;;;;;8.18;5.22;;;;;;;14.26;70.42;99221.19;341514;28;1836;-68
2022/09/24 00:36:51;;;;;;;8.05;5.35;;;;;;;14.26;70.10;99215.13;342767;28;1846;-68
2022/09/24 00:37:03;;;;;;;7.65;5.25;;;;;;;14.27;70.20;99212.44;343446;28;1160;-68
2022/09/24 00:37:17;;;;;;;7.85;5.22;;;;;;;14.29;70.32;99217.59;342861;28;1934;-68
2022/09/24 00:37:29;;;;;;;6.37;5.07;;;;;;;14.30;70.30;99211.41;341983;28;1255;-68
2022/09/24 00:37:41;;;;;;;5.90;5.20;;;;;;;14.31;70.38;99216.56;341856;28;1052;-67
2022/09/24 00:37:53;;;;;;;5.88;5.20;;;;;;;14.32;70.33;99213.00;342408;28;1261;-67
2022/09/24 00:38:05;;;;;;;5.65;4.95;;;;;;;14.34;70.49;99218.16;342003;28;1035;-68
2022/09/24 00:38:18;;;;;;;6.03;4.93;;;;;;;14.34;70.04;99215.53;341865;28;1293;-69
2022/09/24 00:38:31;;;;;;;6.57;5.30;;;;;;;14.36;70.21;99221.53;341263;28;1769;-69
2022/09/24 00:38:43;;;;;;;8.70;5.43;;;;;;;14.35;69.78;99214.63;342683;28;1729;-70
2022/09/24 00:38:57;;;;;;;8.80;5.50;;;;;;;14.36;69.83;99216.31;342817;28;1620;-68
2022/09/24 00:39:09;;;;;;;7.30;5.50;;;;;;;14.36;70.07;99211.91;342582;28;1015;-69
2022/09/24 00:39:21;;;;;;;7.55;5.28;;;;;;;14.38;70.13;99210.06;341835;28;1612;-69
2022/09/24 00:39:32;;;;;;;7.18;5.20;;;;;;;14.39;69.99;99221.38;342986;28;1853;-69
2022/09/24 00:39:45;;;;;;;7.20;5.05;;;;;;;14.41;69.99;99214.28;343136;28;1744;-68
2022/09/24 00:39:57;;;;;;;6.90;5.30;;;;;;;14.39;70.15;99216.97;342185;28;1244;-69
2022/09/24 00:40:09;;;;;;;7.65;5.20;;;;;;;14.39;70.04;99211.75;342209;28;1040;-69
2022/09/24 00:40:27;;;;;;;8.77;5.18;;;;;;;14.41;70.13;99213.44;343482;28;1515;-68
2022/09/24 00:40:39;;;;;;;8.97;5.23;;;;;;;14.42;70.05;99212.50;344767;28;1079;-68
2022/09/24 00:40:51;;;;;;;7.75;5.13;;;;;;;14.42;70.27;99212.50;344743;28;1075;-69
2022/09/24 00:41:03;;;;;;;6.43;5.07;;;;;;;14.41;70.14;99208.19;344736;28;1111;-69
2022/09/24 00:41:18;;;;;;;5.93;5.18;;;;;;;14.42;70.18;99212.50;344794;28;1008;-69
2022/09/24 00:41:33;;;;;;;6.05;5.18;;;;;;;14.42;70.10;99207.28;341048;28;1661;-69
2022/09/24 00:41:46;;;;;;;6.00;5.38;;;;;;;14.41;70.22;99208.19;339511;29;1356;-68
2022/09/24 00:41:58;;;;;;;5.93;5.32;;;;;;;14.43;70.09;99216.78;339414;29;1027;-69
2022/09/24 00:42:11;;;;;;;6.15;5.28;;;;;;;14.43;70.10;99207.19;339542;29;1257;-69
2022/09/24 00:42:24;;;;;;;5.65;5.05;;;;;;;14.44;70.11;99208.88;340538;29;1324;-68
2022/09/24 00:42:36;;;;;;;6.40;5.10;;;;;;;14.45;70.16;99204.50;340331;28;1773;-69
2022/09/24 00:42:48;;;;;;;8.90;5.25;;;;;;;14.45;69.95;99214.97;341231;28;1695;-68
2022/09/24 00:43:00;;;;;;;9.23;5.20;;;;;;;14.46;69.98;99211.41;339604;29;1292;-69
2022/09/24 00:43:33;;;;;;;7.68;5.03;;;;;;;14.47;69.67;99207.88;340260;28;1851;-67
2022/09/24 00:43:47;;;;;;;8.07;5.50;;;;;;;14.47;69.97;99206.09;342183;28;1600;-67
2022/09/24 00:43:59;;;;;;;8.60;5.43;;;;;;;14.49;70.12;99206.03;342238;28;1257;-68
2022/09/24 00:44:43;;;;;;;8.18;5.15;;;;;;;14.48;70.03;99199.09;342142;28;1048;-68
2022/09/24 00:44:56;;;;;;;8.55;5.25;;;;;;;14.47;70.05;99207.88;336738;29;1103;-67
2022/09/24 00:45:09;;;;;;;8.48;5.30;;;;;;;14.47;69.97;99200.03;341231;28;1754;-68
2022/09/24 00:45:25;;;;;;;6.78;5.50;;;;;;;14.47;69.96;99207.88;343065;28;1429;-69
2022/09/24 00:45:37;;;;;;;7.18;5.50;;;;;;;14.47;70.03;99205.28;342118;28;1841;-69
2022/09/24 00:45:52;;;;;;;7.50;5.40;;;;;;;14.48;69.95;99206.94;342719;28;1774;-69
2022/09/24 00:46:19;;;;;;;7.47;5.38;;;;;;;14.47;70.05;99203.50;343610;28;1016;-69
2022/09/24 00:46:41;;;;;;;6.45;4.97;;;;;;;14.50;70.14;99205.06;341915;28;1641;-68
2022/09/24 00:46:53;;;;;;;7.35;5.45;;;;;;;14.49;70.09;99203.41;341342;28;1075;-69
2022/09/24 00:47:10;;;;;;;6.13;5.40;;;;;;;14.50;70.09;99200.69;342189;28;1008;-69
2022/09/24 00:47:37;;;;;;;7.70;5.30;;;;;;;14.50;69.96;99202.47;341247;28;1379;-68
2022/09/24 00:47:51;;;;;;;9.10;5.85;;;;;;;14.47;69.64;99197.41;341161;28;849;-68
2022/09/24 00:48:03;;;;;;;7.85;5.90;;;;;;;14.47;70.03;99197.41;341279;28;1294;-70
2022/09/24 00:48:15;;;;;;;7.97;5.78;;;;;;;14.47;70.25;99193.03;339699;29;1073;-69
2022/09/24 00:48:27;;;;;;;6.78;5.47;;;;;;;14.49;70.25;99198.19;339436;29;1066;-69
2022/09/24 00:48:41;;;;;;;6.28;5.40;;;;;;;14.50;70.37;99203.31;341729;28;1618;-69
2022/09/24 00:48:57;;;;;;;6.80;5.28;;;;;;;14.50;69.90;99198.06;341465;28;1865;-67
2022/09/24 00:49:12;;;;;;;6.72;5.20;;;;;;;14.50;70.04;99199.84;341005;29;1105;-67
2022/09/24 00:49:24;;;;;;;7.07;5.40;;;;;;;14.49;70.02;99195.56;342031;28;1145;-69
2022/09/24 00:49:36;;;;;;;8.27;5.63;;;;;;;14.49;69.95;99199.00;341638;28;1689;-68
2022/09/24 00:49:49;;;;;;;8.73;5.70;;;;;;;14.49;70.00;99200.78;342325;28;1811;-68
2022/09/24 00:50:22;;;;;;;7.80;5.78;;;;;;;14.51;69.92;99193.72;340566;29;1028;-68
2022/09/24 00:50:34;;;;;;;7.07;5.70;;;;;;;14.51;69.91;99198.94;341946;28;1534;-68
2022/09/24 00:50:47;;;;;;;8.27;5.75;;;;;;;14.53;69.81;99197.91;342572;28;1651;-68
2022/09/24 00:51:01;;;;;;;8.75;5.70;;;;;;;14.54;69.86;99196.97;343469;28;1242;-69
2022/09/24 00:51:17;;;;;;;8.70;5.88;;;;;;;14.55;69.92;99200.44;343455;28;1252;-68
2022/09/24 00:51:31;;;;;;;8.40;5.53;;;;;;;14.55;69.81;99196.06;341983;28;1653;-68
2022/09/24 00:51:47;;;;;;;7.35;5.20;;;;;;;14.55;69.80;99200.44;342758;28;1441;-68
2022/09/24 00:51:59;;;;;;;7.07;5.40;;;;;;;14.55;69.67;99203.91;342131;28;1185;-68
2022/09/24 00:52:11;;;;;;;8.50;5.50;;;;;;;14.56;69.97;99196.91;342334;28;1039;-67
2022/09/24 00:52:23;;;;;;;8.32;5.50;;;;;;;14.55;69.82;99197.84;343174;28;1270;-68
2022/09/24 00:52:41;;;;;;;7.28;5.55;;;;;;;14.55;69.94;99190.81;342944;28;1679;-67
2022/09/24 00:52:59;;;;;;;7.22;5.80;;;;;;;14.54;70.22;99194.34;343182;28;1667;-69
2022/09/24 00:53:16;;;;;;;7.90;5.60;;;;;;;14.54;70.18;99196.13;343547;28;1063;-68
2022/09/24 00:53:31;;;;;;;7.35;5.68;;;;;;;14.51;70.35;99198.94;342616;28;999;-69
2022/09/24 00:53:46;;;;;;;8.32;6.05;;;;;;;14.51;70.21;99193.72;343103;28;1258;-68
2022/09/24 00:54:02;;;;;;;8.60;5.90;;;;;;;14.52;70.25;99200.59;343588;28;1003;-69
2022/09/24 00:54:21;;;;;;;8.13;5.70;;;;;;;14.52;70.11;99198.00;343779;28;1126;-69
2022/09/24 00:54:34;;;;;;;9.65;6.10;;;;;;;14.54;70.14;99198.75;343097;28;1510;-67
2022/09/24 00:54:46;;;;;;;9.55;6.10;;;;;;;14.54;69.98;99198.75;342431;28;1866;-68
2022/09/24 00:54:59;;;;;;;8.60;6.15;;;;;;;14.53;70.06;99195.31;343338;28;1737;-69
2022/09/24 00:55:12;;;;;;;7.10;5.70;;;;;;;14.53;70.01;99194.47;342664;28;1099;-69
2022/09/24 00:55:25;;;;;;;8.98;5.55;;;;;;;14.52;70.00;99195.38;343194;28;1349;-68
2022/09/24 00:55:39;;;;;;;9.45;5.88;;;;;;;14.51;69.92;99198.94;342837;28;1641;-69
2022/09/24 00:55:53;;;;;;;8.65;5.95;;;;;;;14.52;69.90;99201.44;342533;28;1745;-69
2022/09/24 00:56:09;;;;;;;7.53;5.82;;;;;;;14.51;69.91;99194.53;343680;28;1218;-69
2022/09/24 00:56:22;;;;;;;7.60;5.75;;;;;;;14.49;70.06;99196.41;343262;28;1334;-68
2022/09/24 00:56:36;;;;;;;8.07;5.60;;;;;;;14.50;70.11;99192.84;342482;28;1750;-67
2022/09/24 00:56:51;;;;;;;9.32;5.95;;;;;;;14.49;70.20;99192.94;342309;28;1520;-69
2022/09/24 00:57:03;;;;;;;8.75;6.10;;;;;;;14.50;70.15;99192.00;341994;28;1016;-69
2022/09/24 00:57:15;;;;;;;8.32;5.93;;;;;;;14.50;70.02;99197.22;342068;28;1457;-69
2022/09/24 00:57:27;;;;;;;7.78;5.80;;;;;;;14.51;70.27;99198.94;343219;28;1817;-68
2022/09/24 00:57:41;;;;;;;9.07;5.90;;;;;;;14.52;70.11;99195.38;342380;28;1756;-69
2022/09/24 00:57:56;;;;;;;9.15;5.55;;;;;;;14.52;70.00;99190.16;342403;28;1789;-69
2022/09/24 00:58:09;;;;;;;7.75;5.43;;;;;;;14.54;70.12;99194.34;343385;28;1814;-69
2022/09/24 00:58:22;;;;;;;8.82;5.45;;;;;;;14.54;69.96;99196.13;343142;28;1431;-69
2022/09/24 00:58:34;;;;;;;9.02;5.60;;;;;;;14.53;69.99;99194.47;343489;28;1768;-68
2022/09/24 00:58:51;;;;;;;7.90;5.68;;;;;;;14.53;70.00;99194.47;343426;28;1873;-68
2022/09/24 00:59:07;;;;;;;7.05;5.80;;;;;;;14.54;70.26;99183.88;343744;28;1059;-69
2022/09/24 00:59:22;;;;;;;7.18;5.80;;;;;;;14.56;70.22;99186.47;343582;28;1132;-68
2022/09/24 00:59:35;;;;;;;8.13;5.77;;;;;;;14.56;70.25;99186.47;343578;28;987;-68
2022/09/24 00:59:47;;;;;;;7.78;5.72;;;;;;;14.58;70.03;99189.84;343636;28;1661;-68
2022/09/24 00:59:59;;;;;;;7.15;5.68;;;;;;;14.57;70.10;99185.53;343474;28;1231;-69
2022/09/24 01:00:12;;;;;;;7.03;5.60;;;;;;;14.57;70.11;99188.16;342649;28;2019;-68
2022/09/24 01:00:25;;;;;;;8.57;5.80;;;;;;;14.59;70.01;99191.53;343070;28;1243;-68
2022/09/24 01:00:38;;;;;;;9.40;5.85;;;;;;;14.61;70.01;99184.44;343510;28;1048;-68
2022/09/24 01:00:57;;;;;;;7.93;5.60;;;;;;;14.62;69.89;99183.50;343521;28;1263;-69
2022/09/24 01:01:09;;;;;;;6.35;5.60;;;;;;;14.63;69.80;99182.56;342149;28;1101;-69
2022/09/24 01:01:23;;;;;;;7.78;5.82;;;;;;;14.64;69.86;99176.41;342740;28;1248;-68
2022/09/24 01:01:36;;;;;;;8.02;6.03;;;;;;;14.65;69.77;99180.72;343302;28;1142;-67
2022/09/24 01:01:50;;;;;;;8.57;5.93;;;;;;;14.66;69.73;99181.56;343588;28;1015;-68
2022/09/24 01:02:04;;;;;;;9.60;5.88;;;;;;;14.66;69.55;99177.16;342278;28;1200;-68
2022/09/24 01:02:16;;;;;;;9.38;5.60;;;;;;;14.66;69.82;99182.38;342191;28;1623;-67
2022/09/24 01:02:29;;;;;;;10.82;5.70;;;;;;;14.66;69.75;99179.78;343341;28;1745;-67
2022/09/24 01:02:45;;;;;;;11.63;5.80;;;;;;;14.61;70.03;99179.22;340676;28;1744;-68
2022/09/24 01:03:04;;;;;;;10.68;5.75;;;;;;;14.62;70.00;99180.03;341906;28;1716;-68
2022/09/24 01:03:22;;;;;;;7.47;5.63;;;;;;;14.58;70.13;99174.13;340146;29;1643;-68
2022/09/24 01:03:39;;;;;;;6.60;5.50;;;;;;;14.57;70.13;99177.69;339375;29;1895;-69
2022/09/24 01:03:54;;;;;;;6.85;5.55;;;;;;;14.60;69.99;99174.88;340209;29;1590;-69
2022/09/24 01:04:06;;;;;;;7.03;5.95;;;;;;;14.58;69.90;99174.13;338297;29;926;-68
2022/09/24 01:04:20;;;;;;;7.18;6.10;;;;;;;14.57;69.82;99172.47;339251;29;1324;-68
2022/09/24 01:04:32;;;;;;;8.00;6.25;;;;;;;14.57;69.59;99170.69;339604;29;1016;-67
2022/09/24 01:04:44;;;;;;;8.93;6.38;;;;;;;14.57;69.61;99172.47;340229;28;1479;-67
2022/09/24 01:04:56;;;;;;;10.52;6.25;;;;;;;14.58;69.59;99179.38;340996;29;1056;-68
2022/09/24 01:05:09;;;;;;;10.10;6.10;;;;;;;14.58;69.47;99176.75;340780;29;1041;-68
2022/09/24 01:05:21;;;;;;;8.25;5.80;;;;;;;14.59;69.51;99175.84;340605;29;1422;-68
2022/09/24 01:05:35;;;;;;;7.80;5.70;;;;;;;14.51;70.19;99173.63;340611;28;1678;-67
2022/09/24 01:05:47;;;;;;;9.38;6.20;;;;;;;14.53;69.91;99186.63;341833;28;1745;-68
2022/09/24 01:05:59;;;;;;;9.40;6.55;;;;;;;14.52;70.16;99179.69;341604;28;1767;-68
2022/09/24 01:06:12;;;;;;;8.75;6.80;;;;;;;14.49;70.10;99170.25;341875;28;1053;-69
2022/09/24 01:06:24;;;;;;;8.25;6.65;;;;;;;14.50;70.56;99169.31;341336;28;1576;-67
2022/09/24 01:06:37;;;;;;;9.07;6.47;;;;;;;14.49;70.28;99179.88;342985;28;1225;-68
2022/09/24 01:06:50;;;;;;;9.30;6.60;;;;;;;14.49;70.46;99169.41;343461;28;1736;-68
2022/09/24 01:07:02;;;;;;;9.07;6.72;;;;;;;14.48;70.72;99172.94;342215;28;1235;-68
2022/09/24 01:07:14;;;;;;;8.10;6.70;;;;;;;14.45;70.42;99173.13;343436;28;1265;-68
2022/09/24 01:07:26;;;;;;;8.75;6.65;;;;;;;14.42;70.47;99174.13;342657;28;1207;-69
2022/09/24 01:07:38;;;;;;;8.27;6.38;;;;;;;14.42;70.39;99174.13;342624;28;1694;-68
2022/09/24 01:07:50;;;;;;;9.35;6.70;;;;;;;14.42;70.50;99178.53;342959;28;1848;-68
2022/09/24 01:08:03;;;;;;;9.85;6.93;;;;;;;14.43;70.44;99174.97;342909;28;1697;-66
2022/09/24 01:08:17;;;;;;;10.48;7.05;;;;;;;14.47;70.38;99171.28;342196;28;1063;-68
2022/09/24 01:08:29;;;;;;;9.32;6.78;;;;;;;14.46;70.50;99175.63;342079;28;1030;-68